sensor_id;sensor_type;location;lat;lon;timestamp;P1;durP1;ratioP1;P2;durP2;ratioP2
76568;SDS011;66828;44.530;0.094;2023-11-19T00:00:56;36.93;;;19.07;;
76568;SDS011;66828;44.530;0.094;2023-11-19T00:06:28;29.40;;;19.53;;
76568;SDS011;66828;44.530;0.094;2023-11-19T00:12:00;28.57;;;20.67;;
76568;SDS011;66828;44.530;0.094;2023-11-19T00:17:33;37.53;;;22.13;;
76568;SDS011;66828;44.530;0.094;2023-11-19T00:23:06;31.97;;;21.23;;
76568;SDS011;66828;44.530;0.094;2023-11-19T00:28:38;31.00;;;21.90;;
76568;SDS011;66828;44.530;0.094;2023-11-19T00:34:11;25.70;;;17.63;;
76568;SDS011;66828;44.530;0.094;2023-11-19T00:39:43;27.83;;;18.33;;
76568;SDS011;66828;44.530;0.094;2023-11-19T00:45:17;26.37;;;18.67;;
76568;SDS011;66828;44.530;0.094;2023-11-19T00:50:51;38.80;;;24.13;;
76568;SDS011;66828;44.530;0.094;2023-11-19T00:56:24;26.60;;;18.10;;
76568;SDS011;66828;44.530;0.094;2023-11-19T01:01:57;30.07;;;20.67;;
76568;SDS011;66828;44.530;0.094;2023-11-19T01:07:30;31.13;;;21.93;;
76568;SDS011;66828;44.530;0.094;2023-11-19T01:13:02;45.23;;;28.13;;
76568;SDS011;66828;44.530;0.094;2023-11-19T01:18:35;53.67;;;28.30;;
76568;SDS011;66828;44.530;0.094;2023-11-19T01:24:08;45.77;;;23.50;;
76568;SDS011;66828;44.530;0.094;2023-11-19T01:29:41;22.57;;;16.83;;
76568;SDS011;66828;44.530;0.094;2023-11-19T01:35:13;39.03;;;19.83;;
76568;SDS011;66828;44.530;0.094;2023-11-19T01:40:46;66.33;;;26.43;;
76568;SDS011;66828;44.530;0.094;2023-11-19T01:46:20;242.80;;;27.90;;
76568;SDS011;66828;44.530;0.094;2023-11-19T01:51:53;331.97;;;41.07;;
76568;SDS011;66828;44.530;0.094;2023-11-19T01:57:25;46.33;;;21.10;;
76568;SDS011;66828;44.530;0.094;2023-11-19T02:02:57;24.50;;;18.37;;
76568;SDS011;66828;44.530;0.094;2023-11-19T02:08:30;131.57;;;21.10;;
76568;SDS011;66828;44.530;0.094;2023-11-19T02:14:03;-1.00;;;-1.00;;
76568;SDS011;66828;44.530;0.094;2023-11-19T02:19:36;231.33;;;26.43;;
76568;SDS011;66828;44.530;0.094;2023-11-19T02:25:14;250.40;;;30.30;;
76568;SDS011;66828;44.530;0.094;2023-11-19T02:30:44;39.13;;;16.73;;
76568;SDS011;66828;44.530;0.094;2023-11-19T02:36:17;81.60;;;20.73;;
76568;SDS011;66828;44.530;0.094;2023-11-19T02:41:50;38.17;;;17.33;;
76568;SDS011;66828;44.530;0.094;2023-11-19T02:47:24;34.80;;;15.20;;
76568;SDS011;66828;44.530;0.094;2023-11-19T02:52:57;32.37;;;13.67;;
76568;SDS011;66828;44.530;0.094;2023-11-19T02:58:29;57.67;;;17.40;;
76568;SDS011;66828;44.530;0.094;2023-11-19T03:04:02;69.13;;;19.07;;
76568;SDS011;66828;44.530;0.094;2023-11-19T03:09:33;47.10;;;17.73;;
76568;SDS011;66828;44.530;0.094;2023-11-19T03:15:07;99.67;;;13.43;;
76568;SDS011;66828;44.530;0.094;2023-11-19T03:20:41;107.00;;;19.83;;
76568;SDS011;66828;44.530;0.094;2023-11-19T03:26:12;185.63;;;21.83;;
76568;SDS011;66828;44.530;0.094;2023-11-19T03:31:46;167.53;;;24.70;;
76568;SDS011;66828;44.530;0.094;2023-11-19T03:37:18;214.07;;;22.93;;
76568;SDS011;66828;44.530;0.094;2023-11-19T03:42:51;-1.00;;;-1.00;;
76568;SDS011;66828;44.530;0.094;2023-11-19T03:48:24;162.27;;;17.47;;
76568;SDS011;66828;44.530;0.094;2023-11-19T03:53:58;54.63;;;12.57;;
76568;SDS011;66828;44.530;0.094;2023-11-19T03:59:32;136.77;;;17.17;;
76568;SDS011;66828;44.530;0.094;2023-11-19T04:05:05;89.23;;;17.50;;
76568;SDS011;66828;44.530;0.094;2023-11-19T04:10:38;-1.00;;;-1.00;;
76568;SDS011;66828;44.530;0.094;2023-11-19T04:16:11;210.80;;;27.07;;
76568;SDS011;66828;44.530;0.094;2023-11-19T04:21:43;190.60;;;29.07;;
76568;SDS011;66828;44.530;0.094;2023-11-19T04:27:15;104.90;;;19.23;;
76568;SDS011;66828;44.530;0.094;2023-11-19T04:32:48;191.40;;;20.10;;
76568;SDS011;66828;44.530;0.094;2023-11-19T04:38:21;91.80;;;18.27;;
76568;SDS011;66828;44.530;0.094;2023-11-19T04:43:54;168.73;;;19.63;;
76568;SDS011;66828;44.530;0.094;2023-11-19T04:49:27;250.17;;;24.10;;
76568;SDS011;66828;44.530;0.094;2023-11-19T04:55:01;114.70;;;22.30;;
76568;SDS011;66828;44.530;0.094;2023-11-19T05:00:34;-1.00;;;-1.00;;
76568;SDS011;66828;44.530;0.094;2023-11-19T05:06:07;141.17;;;21.03;;
76568;SDS011;66828;44.530;0.094;2023-11-19T05:11:39;33.97;;;15.37;;
76568;SDS011;66828;44.530;0.094;2023-11-19T05:17:12;39.73;;;18.43;;
76568;SDS011;66828;44.530;0.094;2023-11-19T05:22:45;37.67;;;17.10;;
76568;SDS011;66828;44.530;0.094;2023-11-19T05:28:18;93.33;;;22.77;;
76568;SDS011;66828;44.530;0.094;2023-11-19T05:33:51;113.03;;;21.30;;
76568;SDS011;66828;44.530;0.094;2023-11-19T05:39:23;97.00;;;18.10;;
76568;SDS011;66828;44.530;0.094;2023-11-19T05:44:57;111.17;;;16.63;;
76568;SDS011;66828;44.530;0.094;2023-11-19T05:50:29;94.60;;;18.33;;
76568;SDS011;66828;44.530;0.094;2023-11-19T05:56:02;104.77;;;19.73;;
76568;SDS011;66828;44.530;0.094;2023-11-19T06:01:35;50.23;;;17.00;;
76568;SDS011;66828;44.530;0.094;2023-11-19T06:07:08;81.97;;;19.23;;
76568;SDS011;66828;44.530;0.094;2023-11-19T06:12:41;141.37;;;22.80;;
76568;SDS011;66828;44.530;0.094;2023-11-19T06:18:14;-1.00;;;-1.00;;
76568;SDS011;66828;44.530;0.094;2023-11-19T06:23:46;32.03;;;15.57;;
76568;SDS011;66828;44.530;0.094;2023-11-19T06:29:18;34.60;;;17.03;;
76568;SDS011;66828;44.530;0.094;2023-11-19T06:34:51;20.67;;;13.53;;
76568;SDS011;66828;44.530;0.094;2023-11-19T06:40:24;24.47;;;14.47;;
76568;SDS011;66828;44.530;0.094;2023-11-19T06:45:58;22.23;;;14.20;;
76568;SDS011;66828;44.530;0.094;2023-11-19T06:51:31;26.00;;;14.80;;
76568;SDS011;66828;44.530;0.094;2023-11-19T06:57:04;18.90;;;12.67;;
76568;SDS011;66828;44.530;0.094;2023-11-19T07:02:36;21.30;;;14.67;;
76568;SDS011;66828;44.530;0.094;2023-11-19T07:08:10;18.57;;;13.70;;
76568;SDS011;66828;44.530;0.094;2023-11-19T07:13:43;24.53;;;15.57;;
76568;SDS011;66828;44.530;0.094;2023-11-19T07:19:16;15.43;;;12.30;;
76568;SDS011;66828;44.530;0.094;2023-11-19T07:24:49;17.10;;;13.53;;
76568;SDS011;66828;44.530;0.094;2023-11-19T07:30:22;-1.00;;;-1.00;;
76568;SDS011;66828;44.530;0.094;2023-11-19T07:35:55;11.17;;;8.47;;
76568;SDS011;66828;44.530;0.094;2023-11-19T07:41:28;14.13;;;11.70;;
76568;SDS011;66828;44.530;0.094;2023-11-19T07:47:00;18.57;;;12.60;;
76568;SDS011;66828;44.530;0.094;2023-11-19T07:52:33;13.93;;;9.53;;
76568;SDS011;66828;44.530;0.094;2023-11-19T07:58:06;12.47;;;8.90;;
76568;SDS011;66828;44.530;0.094;2023-11-19T08:03:39;-1.00;;;-1.00;;
76568;SDS011;66828;44.530;0.094;2023-11-19T08:09:13;10.50;;;7.97;;
76568;SDS011;66828;44.530;0.094;2023-11-19T08:14:47;12.73;;;9.17;;
76568;SDS011;66828;44.530;0.094;2023-11-19T08:20:20;17.97;;;9.23;;
76568;SDS011;66828;44.530;0.094;2023-11-19T08:25:52;14.83;;;9.67;;
76568;SDS011;66828;44.530;0.094;2023-11-19T08:31:27;15.73;;;9.60;;
76568;SDS011;66828;44.530;0.094;2023-11-19T08:37:00;11.73;;;7.33;;
76568;SDS011;66828;44.530;0.094;2023-11-19T08:42:32;9.53;;;6.83;;
76568;SDS011;66828;44.530;0.094;2023-11-19T08:48:05;8.43;;;6.13;;
76568;SDS011;66828;44.530;0.094;2023-11-19T08:53:39;9.13;;;4.93;;
76568;SDS011;66828;44.530;0.094;2023-11-19T08:59:13;5.83;;;4.57;;
76568;SDS011;66828;44.530;0.094;2023-11-19T09:04:46;6.53;;;4.60;;
76568;SDS011;66828;44.530;0.094;2023-11-19T09:10:19;6.57;;;4.33;;
76568;SDS011;66828;44.530;0.094;2023-11-19T09:15:51;5.57;;;3.80;;
76568;SDS011;66828;44.530;0.094;2023-11-19T09:21:24;-1.00;;;-1.00;;
76568;SDS011;66828;44.530;0.094;2023-11-19T09:26:57;8.60;;;4.53;;
76568;SDS011;66828;44.530;0.094;2023-11-19T09:32:29;5.27;;;3.90;;
76568;SDS011;66828;44.530;0.094;2023-11-19T09:38:02;11.43;;;8.17;;
76568;SDS011;66828;44.530;0.094;2023-11-19T09:43:35;9.10;;;5.87;;
76568;SDS011;66828;44.530;0.094;2023-11-19T09:49:08;6.50;;;4.70;;
76568;SDS011;66828;44.530;0.094;2023-11-19T09:54:41;7.80;;;5.47;;
76568;SDS011;66828;44.530;0.094;2023-11-19T10:00:14;7.10;;;4.13;;
76568;SDS011;66828;44.530;0.094;2023-11-19T10:05:46;7.43;;;5.00;;
76568;SDS011;66828;44.530;0.094;2023-11-19T10:11:18;5.50;;;4.43;;
76568;SDS011;66828;44.530;0.094;2023-11-19T10:16:50;5.20;;;4.50;;
76568;SDS011;66828;44.530;0.094;2023-11-19T10:22:24;5.50;;;4.37;;
76568;SDS011;66828;44.530;0.094;2023-11-19T10:27:58;4.53;;;4.00;;
76568;SDS011;66828;44.530;0.094;2023-11-19T10:33:31;5.17;;;4.57;;
76568;SDS011;66828;44.530;0.094;2023-11-19T10:39:05;5.30;;;4.37;;
76568;SDS011;66828;44.530;0.094;2023-11-19T10:44:37;-1.00;;;-1.00;;
76568;SDS011;66828;44.530;0.094;2023-11-19T10:50:09;5.20;;;4.53;;
76568;SDS011;66828;44.530;0.094;2023-11-19T10:55:42;5.70;;;5.17;;
76568;SDS011;66828;44.530;0.094;2023-11-19T11:01:17;7.40;;;5.90;;
76568;SDS011;66828;44.530;0.094;2023-11-19T11:06:49;9.13;;;6.20;;
76568;SDS011;66828;44.530;0.094;2023-11-19T11:12:21;8.97;;;6.60;;
76568;SDS011;66828;44.530;0.094;2023-11-19T11:17:53;11.60;;;6.87;;
76568;SDS011;66828;44.530;0.094;2023-11-19T11:23:36;9.43;;;5.97;;
76568;SDS011;66828;44.530;0.094;2023-11-19T11:28:59;9.20;;;6.37;;
76568;SDS011;66828;44.530;0.094;2023-11-19T11:40:06;9.43;;;6.07;;
76568;SDS011;66828;44.530;0.094;2023-11-19T11:45:39;8.20;;;4.83;;
76568;SDS011;66828;44.530;0.094;2023-11-19T11:51:11;7.97;;;5.10;;
76568;SDS011;66828;44.530;0.094;2023-11-19T11:56:44;6.67;;;4.90;;
76568;SDS011;66828;44.530;0.094;2023-11-19T12:02:18;9.47;;;5.00;;
76568;SDS011;66828;44.530;0.094;2023-11-19T12:07:54;8.63;;;5.10;;
76568;SDS011;66828;44.530;0.094;2023-11-19T12:13:23;9.37;;;4.90;;
76568;SDS011;66828;44.530;0.094;2023-11-19T12:18:55;11.60;;;5.13;;
76568;SDS011;66828;44.530;0.094;2023-11-19T12:24:27;8.47;;;4.83;;
76568;SDS011;66828;44.530;0.094;2023-11-19T12:30:00;7.20;;;4.53;;
76568;SDS011;66828;44.530;0.094;2023-11-19T12:35:32;7.00;;;4.27;;
76568;SDS011;66828;44.530;0.094;2023-11-19T12:41:06;6.57;;;4.40;;
76568;SDS011;66828;44.530;0.094;2023-11-19T12:46:39;9.17;;;4.90;;
76568;SDS011;66828;44.530;0.094;2023-11-19T12:52:12;6.23;;;4.07;;
76568;SDS011;66828;44.530;0.094;2023-11-19T12:57:44;6.43;;;4.53;;
76568;SDS011;66828;44.530;0.094;2023-11-19T13:03:22;8.20;;;4.03;;
76568;SDS011;66828;44.530;0.094;2023-11-19T13:08:48;9.07;;;4.10;;
76568;SDS011;66828;44.530;0.094;2023-11-19T13:14:21;-1.00;;;-1.00;;
76568;SDS011;66828;44.530;0.094;2023-11-19T13:19:54;9.30;;;4.87;;
76568;SDS011;66828;44.530;0.094;2023-11-19T13:25:28;8.13;;;3.50;;
76568;SDS011;66828;44.530;0.094;2023-11-19T13:31:00;6.67;;;3.83;;
76568;SDS011;66828;44.530;0.094;2023-11-19T13:36:34;8.03;;;3.67;;
76568;SDS011;66828;44.530;0.094;2023-11-19T13:42:06;6.67;;;3.30;;
76568;SDS011;66828;44.530;0.094;2023-11-19T13:47:40;-1.00;;;-1.00;;
76568;SDS011;66828;44.530;0.094;2023-11-19T13:53:12;8.27;;;5.13;;
76568;SDS011;66828;44.530;0.094;2023-11-19T13:58:44;6.30;;;4.70;;
76568;SDS011;66828;44.530;0.094;2023-11-19T14:04:16;10.03;;;4.50;;
76568;SDS011;66828;44.530;0.094;2023-11-19T14:09:49;-1.00;;;-1.00;;
76568;SDS011;66828;44.530;0.094;2023-11-19T14:15:23;6.27;;;3.73;;
76568;SDS011;66828;44.530;0.094;2023-11-19T14:20:55;5.03;;;3.47;;
76568;SDS011;66828;44.530;0.094;2023-11-19T14:26:29;9.30;;;4.17;;
76568;SDS011;66828;44.530;0.094;2023-11-19T14:32:03;6.83;;;4.97;;
76568;SDS011;66828;44.530;0.094;2023-11-19T14:37:35;-1.00;;;-1.00;;
76568;SDS011;66828;44.530;0.094;2023-11-19T14:43:08;5.37;;;3.73;;
76568;SDS011;66828;44.530;0.094;2023-11-19T14:48:41;11.23;;;5.53;;
76568;SDS011;66828;44.530;0.094;2023-11-19T14:54:14;8.27;;;6.20;;
76568;SDS011;66828;44.530;0.094;2023-11-19T14:59:47;8.63;;;4.97;;
76568;SDS011;66828;44.530;0.094;2023-11-19T15:05:19;9.20;;;4.87;;
76568;SDS011;66828;44.530;0.094;2023-11-19T15:10:52;-1.00;;;-1.00;;
76568;SDS011;66828;44.530;0.094;2023-11-19T15:16:25;14.13;;;5.20;;
76568;SDS011;66828;44.530;0.094;2023-11-19T15:21:57;5.97;;;4.17;;
76568;SDS011;66828;44.530;0.094;2023-11-19T15:27:30;9.83;;;5.00;;
76568;SDS011;66828;44.530;0.094;2023-11-19T15:33:03;9.30;;;5.27;;
76568;SDS011;66828;44.530;0.094;2023-11-19T15:38:35;9.27;;;4.80;;
76568;SDS011;66828;44.530;0.094;2023-11-19T15:44:08;7.60;;;4.77;;
76568;SDS011;66828;44.530;0.094;2023-11-19T15:49:42;8.80;;;3.90;;
76568;SDS011;66828;44.530;0.094;2023-11-19T15:55:15;12.80;;;4.53;;
76568;SDS011;66828;44.530;0.094;2023-11-19T16:00:48;22.43;;;10.60;;
76568;SDS011;66828;44.530;0.094;2023-11-19T16:06:21;10.10;;;4.60;;
76568;SDS011;66828;44.530;0.094;2023-11-19T16:11:52;7.07;;;3.97;;
76568;SDS011;66828;44.530;0.094;2023-11-19T16:17:25;15.50;;;6.83;;
76568;SDS011;66828;44.530;0.094;2023-11-19T16:22:58;26.57;;;16.43;;
76568;SDS011;66828;44.530;0.094;2023-11-19T16:28:30;9.97;;;4.93;;
76568;SDS011;66828;44.530;0.094;2023-11-19T16:34:02;15.20;;;9.90;;
76568;SDS011;66828;44.530;0.094;2023-11-19T16:39:35;13.57;;;9.27;;
76568;SDS011;66828;44.530;0.094;2023-11-19T16:45:07;15.40;;;9.47;;
76568;SDS011;66828;44.530;0.094;2023-11-19T16:50:39;15.20;;;9.27;;
76568;SDS011;66828;44.530;0.094;2023-11-19T16:56:13;17.60;;;11.60;;
76568;SDS011;66828;44.530;0.094;2023-11-19T17:01:45;24.13;;;11.50;;
76568;SDS011;66828;44.530;0.094;2023-11-19T17:07:18;23.30;;;11.27;;
76568;SDS011;66828;44.530;0.094;2023-11-19T17:12:51;47.40;;;13.13;;
76568;SDS011;66828;44.530;0.094;2023-11-19T17:18:25;-1.00;;;-1.00;;
76568;SDS011;66828;44.530;0.094;2023-11-19T17:23:58;21.00;;;12.07;;
76568;SDS011;66828;44.530;0.094;2023-11-19T17:29:32;23.67;;;11.23;;
76568;SDS011;66828;44.530;0.094;2023-11-19T17:35:05;38.53;;;25.90;;
76568;SDS011;66828;44.530;0.094;2023-11-19T17:40:36;40.77;;;29.20;;
76568;SDS011;66828;44.530;0.094;2023-11-19T17:46:09;42.33;;;27.40;;
76568;SDS011;66828;44.530;0.094;2023-11-19T17:51:41;53.83;;;33.50;;
76568;SDS011;66828;44.530;0.094;2023-11-19T17:57:14;37.73;;;26.13;;
76568;SDS011;66828;44.530;0.094;2023-11-19T18:02:47;36.10;;;24.30;;
76568;SDS011;66828;44.530;0.094;2023-11-19T18:08:19;63.23;;;42.97;;
76568;SDS011;66828;44.530;0.094;2023-11-19T18:13:51;53.60;;;31.23;;
76568;SDS011;66828;44.530;0.094;2023-11-19T18:19:24;63.10;;;36.93;;
76568;SDS011;66828;44.530;0.094;2023-11-19T18:24:56;45.97;;;30.13;;
76568;SDS011;66828;44.530;0.094;2023-11-19T18:30:29;41.37;;;27.43;;
76568;SDS011;66828;44.530;0.094;2023-11-19T18:36:02;49.47;;;33.70;;
76568;SDS011;66828;44.530;0.094;2023-11-19T18:41:34;54.93;;;37.40;;
76568;SDS011;66828;44.530;0.094;2023-11-19T18:47:07;50.87;;;31.80;;
76568;SDS011;66828;44.530;0.094;2023-11-19T18:52:41;39.60;;;22.70;;
76568;SDS011;66828;44.530;0.094;2023-11-19T18:58:13;32.77;;;21.47;;
76568;SDS011;66828;44.530;0.094;2023-11-19T19:03:46;30.97;;;17.63;;
76568;SDS011;66828;44.530;0.094;2023-11-19T19:09:18;32.60;;;18.37;;
76568;SDS011;66828;44.530;0.094;2023-11-19T19:14:52;30.67;;;19.60;;
76568;SDS011;66828;44.530;0.094;2023-11-19T19:20:25;28.93;;;18.30;;
76568;SDS011;66828;44.530;0.094;2023-11-19T19:25:57;21.07;;;14.97;;
76568;SDS011;66828;44.530;0.094;2023-11-19T19:31:30;-1.00;;;-1.00;;
76568;SDS011;66828;44.530;0.094;2023-11-19T19:37:03;41.17;;;22.53;;
76568;SDS011;66828;44.530;0.094;2023-11-19T19:42:36;36.43;;;24.13;;
76568;SDS011;66828;44.530;0.094;2023-11-19T19:48:08;23.97;;;15.70;;
76568;SDS011;66828;44.530;0.094;2023-11-19T19:53:40;36.27;;;19.37;;
76568;SDS011;66828;44.530;0.094;2023-11-19T19:59:13;27.07;;;17.97;;
76568;SDS011;66828;44.530;0.094;2023-11-19T20:04:46;33.67;;;19.93;;
76568;SDS011;66828;44.530;0.094;2023-11-19T20:10:19;30.50;;;17.83;;
76568;SDS011;66828;44.530;0.094;2023-11-19T20:15:51;23.73;;;15.03;;
76568;SDS011;66828;44.530;0.094;2023-11-19T20:21:24;20.87;;;13.00;;
76568;SDS011;66828;44.530;0.094;2023-11-19T20:26:58;28.27;;;18.17;;
76568;SDS011;66828;44.530;0.094;2023-11-19T20:32:32;36.13;;;23.30;;
76568;SDS011;66828;44.530;0.094;2023-11-19T20:38:04;36.83;;;20.23;;
76568;SDS011;66828;44.530;0.094;2023-11-19T20:43:37;28.47;;;17.47;;
76568;SDS011;66828;44.530;0.094;2023-11-19T20:49:11;18.97;;;13.30;;
76568;SDS011;66828;44.530;0.094;2023-11-19T20:54:43;22.67;;;15.17;;
76568;SDS011;66828;44.530;0.094;2023-11-19T21:00:16;22.50;;;14.40;;
76568;SDS011;66828;44.530;0.094;2023-11-19T21:05:48;19.10;;;14.03;;
76568;SDS011;66828;44.530;0.094;2023-11-19T21:11:20;18.73;;;12.87;;
76568;SDS011;66828;44.530;0.094;2023-11-19T21:16:53;-1.00;;;-1.00;;
76568;SDS011;66828;44.530;0.094;2023-11-19T21:22:26;15.30;;;11.43;;
76568;SDS011;66828;44.530;0.094;2023-11-19T21:27:58;20.90;;;12.53;;
76568;SDS011;66828;44.530;0.094;2023-11-19T21:33:30;19.37;;;13.07;;
76568;SDS011;66828;44.530;0.094;2023-11-19T21:39:03;-1.00;;;-1.00;;
76568;SDS011;66828;44.530;0.094;2023-11-19T21:44:36;21.10;;;12.67;;
76568;SDS011;66828;44.530;0.094;2023-11-19T21:50:10;17.23;;;11.90;;
76568;SDS011;66828;44.530;0.094;2023-11-19T21:55:42;15.50;;;11.40;;
76568;SDS011;66828;44.530;0.094;2023-11-19T22:01:15;22.97;;;14.23;;
76568;SDS011;66828;44.530;0.094;2023-11-19T22:06:48;17.63;;;11.73;;
76568;SDS011;66828;44.530;0.094;2023-11-19T22:12:20;17.37;;;11.27;;
76568;SDS011;66828;44.530;0.094;2023-11-19T22:17:53;20.60;;;12.20;;
76568;SDS011;66828;44.530;0.094;2023-11-19T22:23:26;17.40;;;11.67;;
76568;SDS011;66828;44.530;0.094;2023-11-19T22:28:58;20.73;;;13.57;;
76568;SDS011;66828;44.530;0.094;2023-11-19T22:34:31;22.63;;;13.70;;
76568;SDS011;66828;44.530;0.094;2023-11-19T22:40:04;23.07;;;13.90;;
76568;SDS011;66828;44.530;0.094;2023-11-19T22:45:37;23.20;;;15.80;;
76568;SDS011;66828;44.530;0.094;2023-11-19T22:51:09;28.90;;;16.53;;
76568;SDS011;66828;44.530;0.094;2023-11-19T22:56:43;20.87;;;13.33;;
76568;SDS011;66828;44.530;0.094;2023-11-19T23:02:16;19.10;;;14.57;;
76568;SDS011;66828;44.530;0.094;2023-11-19T23:07:50;25.07;;;15.37;;
76568;SDS011;66828;44.530;0.094;2023-11-19T23:13:23;19.57;;;13.70;;
76568;SDS011;66828;44.530;0.094;2023-11-19T23:18:55;22.60;;;15.47;;
76568;SDS011;66828;44.530;0.094;2023-11-19T23:24:27;23.17;;;15.50;;
76568;SDS011;66828;44.530;0.094;2023-11-19T23:30:01;30.60;;;20.43;;
76568;SDS011;66828;44.530;0.094;2023-11-19T23:35:33;36.90;;;20.80;;
76568;SDS011;66828;44.530;0.094;2023-11-19T23:41:06;24.13;;;15.40;;
76568;SDS011;66828;44.530;0.094;2023-11-19T23:46:39;22.00;;;16.10;;
76568;SDS011;66828;44.530;0.094;2023-11-19T23:52:12;33.73;;;22.73;;
76568;SDS011;66828;44.530;0.094;2023-11-19T23:57:44;35.87;;;24.50;;
